createdAt,value
2017-05-21T00:00:39.846Z,23.48
2017-05-21T00:03:08.779Z,23.38
2017-05-21T00:05:37.729Z,22.58
2017-05-21T00:08:06.700Z,23.37
2017-05-21T00:10:35.647Z,24.47
2017-05-21T00:13:04.571Z,23.05
2017-05-21T00:15:33.531Z,20.70
2017-05-21T00:18:02.473Z,23.52
2017-05-21T00:20:31.451Z,23.62
2017-05-21T00:23:00.408Z,21.12
2017-05-21T00:25:29.337Z,20.65
2017-05-21T00:27:58.267Z,22.57
2017-05-21T00:30:27.232Z,22.08
2017-05-21T00:32:56.163Z,21.13
2017-05-21T00:35:25.095Z,22.95
2017-05-21T00:37:54.047Z,23.12
2017-05-21T00:40:22.973Z,21.18
2017-05-21T00:42:51.898Z,23.93
2017-05-21T00:45:20.860Z,21.90
2017-05-21T00:47:49.804Z,22.22
2017-05-21T00:50:18.730Z,20.55
2017-05-21T00:52:47.690Z,21.62
2017-05-21T00:55:16.632Z,23.32
2017-05-21T00:57:45.581Z,21.93
2017-05-21T01:00:14.543Z,23.02
2017-05-21T01:02:43.489Z,22.80
2017-05-21T01:05:12.417Z,22.93
2017-05-21T01:07:41.378Z,22.08
2017-05-21T01:10:10.302Z,23.25
2017-05-21T01:12:39.249Z,24.83
2017-05-21T01:15:08.225Z,22.20
2017-05-21T01:17:37.157Z,22.27
2017-05-21T01:20:06.102Z,23.83
2017-05-21T01:22:35.498Z,21.58
2017-05-21T01:25:04.444Z,23.33
2017-05-21T01:27:33.370Z,22.73
2017-05-21T01:30:02.327Z,22.92
2017-05-21T01:32:31.251Z,22.40
2017-05-21T01:35:00.194Z,23.08
2017-05-21T01:37:29.165Z,21.70
2017-05-21T01:39:58.109Z,22.32
2017-05-21T01:42:27.042Z,22.63
2017-05-21T01:44:56.018Z,21.42
2017-05-21T01:47:24.947Z,25.27
2017-05-21T01:49:53.898Z,22.53
2017-05-21T01:52:22.862Z,22.30
2017-05-21T01:54:51.815Z,22.60
2017-05-21T01:57:20.762Z,22.92
2017-05-21T01:59:49.748Z,23.73
2017-05-21T02:02:18.696Z,23.95
2017-05-21T02:04:47.647Z,21.82
2017-05-21T02:07:16.625Z,24.42
2017-05-21T02:09:45.559Z,25.18
2017-05-21T02:12:14.511Z,24.27
2017-05-21T02:14:43.468Z,24.83
2017-05-21T02:17:12.400Z,24.00
2017-05-21T02:19:41.340Z,26.05
2017-05-21T02:22:10.402Z,25.48
2017-05-21T02:24:39.345Z,25.03
2017-05-21T02:27:08.292Z,26.33
2017-05-21T02:29:37.261Z,25.67
2017-05-21T02:32:06.189Z,27.15
2017-05-21T02:34:35.134Z,25.88
2017-05-21T02:37:04.091Z,24.78
2017-05-21T02:39:33.017Z,24.88
2017-05-21T02:42:01.961Z,23.95
2017-05-21T02:44:30.909Z,24.65
2017-05-21T02:46:59.854Z,23.70
2017-05-21T02:49:28.789Z,28.70
2017-05-21T02:51:57.738Z,25.90
2017-05-21T02:54:26.681Z,26.93
2017-05-21T02:56:55.623Z,26.70
2017-05-21T02:59:24.591Z,25.63
2017-05-21T03:01:53.514Z,26.40
2017-05-21T03:04:22.443Z,30.25
2017-05-21T03:06:51.421Z,28.60
2017-05-21T03:09:20.383Z,28.48
2017-05-21T03:11:49.310Z,29.05
2017-05-21T03:14:18.275Z,29.35
2017-05-21T03:16:47.233Z,29.95
2017-05-21T03:19:16.159Z,33.80
2017-05-21T03:21:45.133Z,32.55
2017-05-21T03:24:14.067Z,29.23
2017-05-21T03:26:43.014Z,33.63
2017-05-21T03:29:11.990Z,30.80
2017-05-21T03:31:40.941Z,30.13
2017-05-21T03:34:09.887Z,30.62
2017-05-21T03:36:38.845Z,31.17
2017-05-21T03:39:07.775Z,31.07
2017-05-21T03:41:36.716Z,27.77
2017-05-21T03:44:05.670Z,28.00
2017-05-21T03:46:34.604Z,28.18
2017-05-21T03:49:03.525Z,27.02
2017-05-21T03:51:32.479Z,28.20
2017-05-21T03:54:01.423Z,27.55
2017-05-21T03:56:30.362Z,27.45
2017-05-21T03:58:59.324Z,25.37
2017-05-21T04:01:28.270Z,28.30
2017-05-21T04:03:57.210Z,27.45
2017-05-21T04:06:26.167Z,31.60
2017-05-21T04:08:55.114Z,30.65
2017-05-21T04:11:24.043Z,29.65
2017-05-21T04:13:52.998Z,29.05
2017-05-21T04:16:21.937Z,26.93
2017-05-21T04:18:50.865Z,30.95
2017-05-21T04:21:19.823Z,30.65
2017-05-21T04:23:48.788Z,32.02
2017-05-21T04:26:17.713Z,29.45
2017-05-21T04:28:46.666Z,32.02
2017-05-21T04:31:15.614Z,37.55
2017-05-21T04:33:44.568Z,33.53
2017-05-21T04:36:13.536Z,30.37
2017-05-21T04:38:42.462Z,30.88
2017-05-21T04:41:11.385Z,32.20
2017-05-21T04:43:40.364Z,29.57
2017-05-21T04:46:09.291Z,27.57
2017-05-21T04:48:38.260Z,28.13
2017-05-21T04:51:07.242Z,25.23
2017-05-21T04:53:36.182Z,25.95
2017-05-21T04:56:05.124Z,27.55
2017-05-21T04:58:34.114Z,28.00
2017-05-21T05:01:03.052Z,27.30
2017-05-21T05:03:32.004Z,28.80
2017-05-21T05:06:00.977Z,29.62
2017-05-21T05:08:29.928Z,29.08
2017-05-21T05:10:58.853Z,29.67
2017-05-21T05:13:27.817Z,31.00
2017-05-21T05:15:56.766Z,29.40
2017-05-21T05:18:25.718Z,30.82
2017-05-21T05:20:54.692Z,32.68
2017-05-21T05:23:23.623Z,31.87
2017-05-21T05:25:52.578Z,34.50
2017-05-21T05:28:21.538Z,34.78
2017-05-21T05:30:50.489Z,37.22
2017-05-21T05:33:19.418Z,35.73
2017-05-21T05:35:48.388Z,35.90
2017-05-21T05:38:17.343Z,34.40
2017-05-21T05:40:46.297Z,34.18
2017-05-21T05:43:15.250Z,36.03
2017-05-21T05:45:44.181Z,35.22
2017-05-21T05:48:13.114Z,35.30
2017-05-21T05:50:42.095Z,36.67
2017-05-21T05:53:11.042Z,38.12
2017-05-21T05:55:39.970Z,39.73
2017-05-21T05:58:08.925Z,37.88
2017-05-21T06:00:37.872Z,36.88
2017-05-21T06:03:06.817Z,37.73
2017-05-21T06:05:35.788Z,37.77
2017-05-21T06:08:04.737Z,41.15
2017-05-21T06:10:33.701Z,38.92
2017-05-21T06:13:02.658Z,36.83
2017-05-21T06:15:31.601Z,36.95
2017-05-21T06:18:00.545Z,37.90
2017-05-21T06:20:29.519Z,39.98
2017-05-21T06:22:58.915Z,34.70
2017-05-21T06:25:27.838Z,35.47
2017-05-21T06:27:56.798Z,38.32
2017-05-21T06:30:25.726Z,36.27
2017-05-21T06:32:54.650Z,32.67
2017-05-21T06:35:23.611Z,35.08
2017-05-21T06:37:52.557Z,31.27
2017-05-21T06:40:21.485Z,28.92
2017-05-21T06:42:50.466Z,28.35
2017-05-21T06:45:19.408Z,27.43
2017-05-21T06:47:48.336Z,24.67
2017-05-21T06:50:17.289Z,24.38
2017-05-21T06:52:46.213Z,22.53
2017-05-21T06:55:15.156Z,22.25
2017-05-21T06:57:44.110Z,21.62
2017-05-21T07:00:13.052Z,22.17
2017-05-21T07:02:41.983Z,19.92
2017-05-21T07:05:10.938Z,19.47
2017-05-21T07:07:39.886Z,18.50
2017-05-21T07:10:08.827Z,20.00
2017-05-21T07:12:37.809Z,17.12
2017-05-21T07:15:06.756Z,17.88
2017-05-21T07:17:35.707Z,17.28
2017-05-21T07:20:04.672Z,16.23
2017-05-21T07:22:33.612Z,19.97
2017-05-21T07:25:02.556Z,16.75
2017-05-21T07:27:31.515Z,18.83
2017-05-21T07:30:00.456Z,18.48
2017-05-21T07:32:29.404Z,16.47
2017-05-21T07:34:58.376Z,14.72
2017-05-21T07:37:27.301Z,15.93
2017-05-21T07:39:56.227Z,17.83
2017-05-21T07:42:25.217Z,15.48
2017-05-21T07:44:54.169Z,16.02
2017-05-21T07:47:23.101Z,14.22
2017-05-21T07:49:52.060Z,13.90
2017-05-21T07:52:21.011Z,13.17
2017-05-21T07:54:49.943Z,12.45
2017-05-21T07:57:18.898Z,14.05
2017-05-21T07:59:48.042Z,12.33
2017-05-21T08:02:16.987Z,14.40
2017-05-21T08:04:46.039Z,12.60
2017-05-21T08:07:15.000Z,11.80
2017-05-21T08:09:43.935Z,12.27
2017-05-21T08:12:12.913Z,12.36
2017-05-21T08:14:41.850Z,11.20
2017-05-21T08:17:10.780Z,10.38
2017-05-21T08:19:39.751Z,11.10
2017-05-21T08:22:08.747Z,10.34
2017-05-21T08:24:37.693Z,9.68
2017-05-21T08:27:06.657Z,8.74
2017-05-21T08:29:35.599Z,8.30
2017-05-21T08:32:04.549Z,8.48
2017-05-21T08:34:33.524Z,8.48
2017-05-21T08:37:02.469Z,6.52
2017-05-21T08:39:31.405Z,8.12
2017-05-21T08:42:00.354Z,9.28
2017-05-21T08:44:29.278Z,7.08
2017-05-21T08:46:58.225Z,7.48
2017-05-21T08:49:27.197Z,7.66
2017-05-21T08:51:56.156Z,7.04
2017-05-21T08:54:25.767Z,6.80
2017-05-21T08:56:56.427Z,6.22
2017-05-21T08:59:26.051Z,8.26
2017-05-21T09:01:55.660Z,8.32
2017-05-21T09:04:25.282Z,6.30
2017-05-21T09:06:54.894Z,6.34
2017-05-21T09:09:24.517Z,6.88
2017-05-21T09:11:55.423Z,8.06
2017-05-21T09:14:25.023Z,6.32
2017-05-21T09:16:55.526Z,7.14
2017-05-21T09:19:24.443Z,5.70
2017-05-21T09:21:53.358Z,4.34
2017-05-21T09:24:22.316Z,4.68
2017-05-21T09:26:51.233Z,4.20
2017-05-21T09:29:20.151Z,3.68
2017-05-21T09:31:49.127Z,4.86
2017-05-21T09:34:18.065Z,4.50
2017-05-21T09:36:46.983Z,3.48
2017-05-21T09:39:15.935Z,4.34
2017-05-21T09:41:44.862Z,3.74
2017-05-21T09:44:13.806Z,4.62
2017-05-21T09:46:42.759Z,4.96
2017-05-21T09:49:11.692Z,4.20
2017-05-21T09:51:40.644Z,4.80
2017-05-21T09:54:09.605Z,3.50
2017-05-21T09:56:38.521Z,4.10
2017-05-21T09:59:07.439Z,3.94
2017-05-21T10:01:36.390Z,3.20
2017-05-21T10:04:05.340Z,3.54
2017-05-21T10:06:34.277Z,3.48
2017-05-21T10:09:03.231Z,4.04
2017-05-21T10:11:32.150Z,3.30
2017-05-21T10:14:01.088Z,3.26
2017-05-21T10:16:30.044Z,2.42
2017-05-21T10:18:58.971Z,2.66
2017-05-21T10:21:27.918Z,1.98
2017-05-21T10:23:56.870Z,2.72
2017-05-21T10:26:25.914Z,2.36
2017-05-21T10:28:54.835Z,3.08
2017-05-21T10:31:23.800Z,2.40
2017-05-21T10:33:52.721Z,2.44
2017-05-21T10:36:21.655Z,2.92
2017-05-21T10:38:50.610Z,3.12
2017-05-21T10:41:19.545Z,3.20
2017-05-21T10:43:48.484Z,3.08
2017-05-21T10:46:17.460Z,3.16
2017-05-21T10:48:46.405Z,2.66
2017-05-21T10:51:15.336Z,2.10
2017-05-21T10:53:44.306Z,2.62
2017-05-21T10:56:13.230Z,2.94
2017-05-21T10:58:42.182Z,2.60
2017-05-21T11:01:11.159Z,2.70
2017-05-21T11:03:40.109Z,3.26
2017-05-21T11:06:09.027Z,2.76
2017-05-21T11:08:37.993Z,3.62
2017-05-21T11:11:06.935Z,2.42
2017-05-21T11:13:35.856Z,2.32
2017-05-21T11:16:04.815Z,2.48
2017-05-21T11:18:33.757Z,2.32
2017-05-21T11:21:02.675Z,4.66
2017-05-21T11:23:31.623Z,2.20
2017-05-21T11:26:00.561Z,3.12
2017-05-21T11:28:29.482Z,3.04
2017-05-21T11:30:58.453Z,2.36
2017-05-21T11:33:27.370Z,3.22
2017-05-21T11:35:56.296Z,3.22
2017-05-21T11:38:25.271Z,3.90
2017-05-21T11:40:54.189Z,4.14
2017-05-21T11:43:23.134Z,3.44
2017-05-21T11:45:52.083Z,3.68
2017-05-21T11:48:21.013Z,3.88
2017-05-21T11:50:49.963Z,4.32
2017-05-21T11:53:18.954Z,3.92
2017-05-21T11:55:47.879Z,4.06
2017-05-21T11:58:16.811Z,6.53
2017-05-21T12:00:45.770Z,3.80
2017-05-21T12:03:14.720Z,6.80
2017-05-21T12:05:43.653Z,6.77
2017-05-21T12:08:12.615Z,7.60
2017-05-21T12:10:41.561Z,3.72
2017-05-21T12:13:10.487Z,3.27
2017-05-21T12:15:39.445Z,3.40
2017-05-21T12:18:08.372Z,2.82
2017-05-21T12:20:37.326Z,2.60
2017-05-21T12:23:06.284Z,3.22
2017-05-21T12:25:35.229Z,2.92
2017-05-21T12:28:04.164Z,2.95
2017-05-21T12:30:33.139Z,3.20
2017-05-21T12:33:02.070Z,3.65
2017-05-21T12:35:30.991Z,3.05
2017-05-21T12:37:59.963Z,2.82
2017-05-21T12:40:28.896Z,3.07
2017-05-21T12:42:57.851Z,3.45
2017-05-21T12:45:26.833Z,2.77
2017-05-21T12:47:55.777Z,3.58
2017-05-21T12:50:24.725Z,2.92
2017-05-21T12:52:53.705Z,3.97
2017-05-21T12:55:22.650Z,3.10
2017-05-21T12:57:51.585Z,3.10
2017-05-21T13:00:20.548Z,3.48
2017-05-21T13:02:49.476Z,2.50
2017-05-21T13:05:18.420Z,2.20
2017-05-21T13:07:47.375Z,2.30
2017-05-21T13:10:16.303Z,2.47
2017-05-21T13:12:45.231Z,5.37
2017-05-21T13:15:14.203Z,2.87
2017-05-21T13:17:43.166Z,3.23
2017-05-21T13:20:12.090Z,2.48
2017-05-21T13:22:41.057Z,2.92
2017-05-21T13:25:09.979Z,2.60
2017-05-21T13:27:38.934Z,2.90
2017-05-21T13:30:07.911Z,3.08
2017-05-21T13:32:36.857Z,3.55
2017-05-21T13:35:05.782Z,3.53
2017-05-21T13:37:34.753Z,2.50
2017-05-21T13:40:03.701Z,2.88
2017-05-21T13:42:32.644Z,3.08
2017-05-21T13:45:01.607Z,5.58
2017-05-21T13:47:30.531Z,4.83
2017-05-21T13:49:59.477Z,3.75
2017-05-21T13:52:28.849Z,2.58
2017-05-21T13:54:57.779Z,3.60
2017-05-21T13:57:26.709Z,15.65
2017-05-21T13:59:55.675Z,3.63
2017-05-21T14:02:24.621Z,2.85
2017-05-21T14:04:53.580Z,4.07
2017-05-21T14:07:22.555Z,4.00
2017-05-21T14:09:51.502Z,5.67
2017-05-21T14:12:20.454Z,4.03
2017-05-21T14:14:49.401Z,4.98
2017-05-21T14:17:18.339Z,3.92
2017-05-21T14:19:47.295Z,3.43
2017-05-21T14:22:16.662Z,3.20
2017-05-21T14:24:45.587Z,3.92
2017-05-21T14:27:14.509Z,3.45
2017-05-21T14:29:43.515Z,5.03
2017-05-21T14:32:12.440Z,3.58
2017-05-21T14:34:41.365Z,2.88
2017-05-21T14:37:10.313Z,3.50
2017-05-21T14:39:39.242Z,3.35
2017-05-21T14:42:08.185Z,6.77
2017-05-21T14:44:37.194Z,8.08
2017-05-21T14:47:06.143Z,3.77
2017-05-21T14:49:35.528Z,3.62
2017-05-21T14:52:04.505Z,3.75
2017-05-21T14:54:33.528Z,2.87
2017-05-21T14:57:02.549Z,2.60
2017-05-21T14:59:31.523Z,4.10
2017-05-21T15:02:00.446Z,2.80
2017-05-21T15:04:29.385Z,3.35
2017-05-21T15:06:58.357Z,4.78
2017-05-21T15:09:27.312Z,3.00
2017-05-21T15:11:56.333Z,4.28
2017-05-21T15:14:25.308Z,5.93
2017-05-21T15:16:54.243Z,3.62
2017-05-21T15:19:23.175Z,6.87
2017-05-21T15:21:52.141Z,3.65
2017-05-21T15:24:21.084Z,3.35
2017-05-21T15:26:50.017Z,6.50
2017-05-21T15:29:18.990Z,4.13
2017-05-21T15:31:47.932Z,3.70
2017-05-21T15:34:16.886Z,7.28
2017-05-21T15:36:45.850Z,3.78
2017-05-21T15:39:14.783Z,6.20
2017-05-21T15:41:43.715Z,3.33
2017-05-21T15:44:12.713Z,5.50
2017-05-21T15:46:41.637Z,5.93
2017-05-21T15:49:10.585Z,5.73
2017-05-21T15:51:39.558Z,8.60
2017-05-21T15:54:08.500Z,3.92
2017-05-21T15:56:37.422Z,3.35
2017-05-21T15:59:06.395Z,2.97
2017-05-21T16:01:35.332Z,3.45
2017-05-21T16:04:04.274Z,3.33
2017-05-21T16:06:33.225Z,3.63
2017-05-21T16:09:02.168Z,3.97
2017-05-21T16:11:31.095Z,3.38
2017-05-21T16:14:00.042Z,5.38
2017-05-21T16:16:28.972Z,3.50
2017-05-21T16:18:57.897Z,7.47
2017-05-21T16:21:26.862Z,5.12
2017-05-21T16:23:55.805Z,5.12
2017-05-21T16:26:24.731Z,3.72
2017-05-21T16:28:53.674Z,5.42
2017-05-21T16:31:22.610Z,6.73
2017-05-21T16:33:51.543Z,4.62
2017-05-21T16:36:20.498Z,6.95
2017-05-21T16:38:49.439Z,4.00
2017-05-21T16:41:18.390Z,6.62
2017-05-21T16:43:47.337Z,4.35
2017-05-21T16:46:16.281Z,5.10
2017-05-21T16:48:45.201Z,4.82
2017-05-21T16:51:14.177Z,9.92
2017-05-21T16:53:43.106Z,14.17
2017-05-21T16:56:12.051Z,5.73
2017-05-21T16:58:41.006Z,12.40
2017-05-21T17:01:09.950Z,5.03
2017-05-21T17:03:38.901Z,6.77
2017-05-21T17:06:07.855Z,5.85
2017-05-21T17:08:36.801Z,4.82
2017-05-21T17:11:05.753Z,9.45
2017-05-21T17:13:34.710Z,4.68
2017-05-21T17:16:03.647Z,5.32
2017-05-21T17:18:32.566Z,3.58
2017-05-21T17:21:01.520Z,3.80
2017-05-21T17:23:30.455Z,5.45
2017-05-21T17:25:59.378Z,5.02
2017-05-21T17:31:06.631Z,5.38
2017-05-21T17:33:35.593Z,5.22
2017-05-21T17:36:04.536Z,6.05
2017-05-21T17:38:33.458Z,6.32
2017-05-21T17:41:02.428Z,11.20
2017-05-21T17:43:31.347Z,8.33
2017-05-21T17:46:00.347Z,6.67
2017-05-21T17:48:29.301Z,9.15
2017-05-21T17:50:58.246Z,5.87
2017-05-21T17:53:27.175Z,5.93
2017-05-21T17:55:56.114Z,6.27
2017-05-21T17:58:25.043Z,4.83
2017-05-21T18:00:53.962Z,4.57
2017-05-21T18:03:22.930Z,5.28
2017-05-21T18:05:51.855Z,6.75
2017-05-21T18:08:20.801Z,6.25
2017-05-21T18:10:49.777Z,5.45
2017-05-21T18:13:18.714Z,4.90
2017-05-21T18:15:47.662Z,5.07
2017-05-21T18:18:16.640Z,5.03
2017-05-21T18:20:45.584Z,4.58
2017-05-21T18:23:14.517Z,5.62
2017-05-21T18:25:43.518Z,7.78
2017-05-21T18:28:12.485Z,21.88
2017-05-21T18:30:41.437Z,12.10
2017-05-21T18:33:10.383Z,5.93
2017-05-21T18:35:39.334Z,11.37
2017-05-21T18:38:09.073Z,5.33
2017-05-21T18:40:38.044Z,5.28
2017-05-21T18:43:06.965Z,5.47
2017-05-21T18:45:35.909Z,6.53
2017-05-21T18:48:04.867Z,6.85
2017-05-21T18:50:33.797Z,7.92
2017-05-21T18:53:02.746Z,5.43
2017-05-21T18:55:32.146Z,11.85
2017-05-21T18:58:01.069Z,7.00
2017-05-21T19:00:30.004Z,9.40
2017-05-21T19:02:58.973Z,5.60
2017-05-21T19:05:27.918Z,7.38
2017-05-21T19:07:56.866Z,6.03
2017-05-21T19:10:25.840Z,7.73
2017-05-21T19:12:54.794Z,6.78
2017-05-21T19:15:23.735Z,6.85
2017-05-21T19:17:52.708Z,6.20
2017-05-21T19:20:21.652Z,5.52
2017-05-21T19:22:50.570Z,7.28
2017-05-21T19:25:19.519Z,7.50
2017-05-21T19:27:48.541Z,7.20
2017-05-21T19:30:17.481Z,8.45
2017-05-21T19:32:46.969Z,12.42
2017-05-21T19:35:15.913Z,6.92
2017-05-21T19:37:44.854Z,7.90
2017-05-21T19:40:13.832Z,8.03
2017-05-21T19:42:42.782Z,8.22
2017-05-21T19:45:11.724Z,4.95
2017-05-21T19:47:40.691Z,8.67
2017-05-21T19:50:09.632Z,6.40
2017-05-21T19:52:38.558Z,5.50
2017-05-21T19:55:07.515Z,5.93
2017-05-21T19:57:36.524Z,5.87
2017-05-21T20:00:05.442Z,6.08
2017-05-21T20:02:34.420Z,7.77
2017-05-21T20:05:03.369Z,13.43
2017-05-21T20:07:32.317Z,13.53
2017-05-21T20:10:01.292Z,7.85
2017-05-21T20:12:30.237Z,6.98
2017-05-21T20:14:59.179Z,8.60
2017-05-21T20:17:28.145Z,8.38
2017-05-21T20:19:57.071Z,8.17
2017-05-21T20:22:26.017Z,7.00
2017-05-21T20:24:55.045Z,6.75
2017-05-21T20:27:23.998Z,7.97
2017-05-21T20:29:52.917Z,8.12
2017-05-21T20:32:21.868Z,6.98
2017-05-21T20:34:50.791Z,7.60
2017-05-21T20:37:19.725Z,7.17
2017-05-21T20:39:48.696Z,6.42
2017-05-21T20:42:17.633Z,7.22
2017-05-21T20:44:46.576Z,6.28
2017-05-21T20:47:15.549Z,7.40
2017-05-21T20:49:44.469Z,6.70
2017-05-21T20:52:13.387Z,7.20
2017-05-21T20:54:42.352Z,7.73
2017-05-21T20:57:11.284Z,7.60
2017-05-21T20:59:40.225Z,7.28
2017-05-21T21:02:09.194Z,7.27
2017-05-21T21:04:38.142Z,7.43
2017-05-21T21:07:07.087Z,6.47
2017-05-21T21:09:36.041Z,8.15
2017-05-21T21:12:04.959Z,8.00
2017-05-21T21:14:33.884Z,9.22
2017-05-21T21:17:02.833Z,8.62
2017-05-21T21:19:31.808Z,7.92
2017-05-21T21:22:00.741Z,9.87
2017-05-21T21:24:29.687Z,8.60
2017-05-21T21:26:58.636Z,8.72
2017-05-21T21:29:27.580Z,8.17
2017-05-21T21:31:56.532Z,11.75
2017-05-21T21:34:25.450Z,9.62
2017-05-21T21:36:54.393Z,9.28
2017-05-21T21:39:23.356Z,7.85
2017-05-21T21:41:52.281Z,10.62
2017-05-21T21:44:21.217Z,8.70
2017-05-21T21:46:50.281Z,8.23
2017-05-21T21:49:19.223Z,10.13
2017-05-21T21:51:48.174Z,9.67
2017-05-21T21:54:17.118Z,8.88
2017-05-21T21:56:46.046Z,10.03
2017-05-21T21:59:14.988Z,9.62
2017-05-21T22:01:43.937Z,10.68
2017-05-21T22:04:12.892Z,9.67
2017-05-21T22:06:41.836Z,9.75
2017-05-21T22:09:10.826Z,11.52
2017-05-21T22:11:39.754Z,11.55
2017-05-21T22:14:08.682Z,11.00
2017-05-21T22:16:37.652Z,9.92
2017-05-21T22:19:06.626Z,10.38
2017-05-21T22:21:35.562Z,12.43
2017-05-21T22:24:04.523Z,12.37
2017-05-21T22:26:33.465Z,12.47
2017-05-21T22:29:02.398Z,12.20
2017-05-21T22:31:31.380Z,13.77
2017-05-21T22:34:00.317Z,11.38
2017-05-21T22:36:29.250Z,13.28
2017-05-21T22:38:58.233Z,10.82
2017-05-21T22:41:27.166Z,11.80
2017-05-21T22:43:56.103Z,13.47
2017-05-21T22:46:25.082Z,12.37
2017-05-21T22:48:54.008Z,11.92
2017-05-21T22:51:22.938Z,13.75
2017-05-21T22:53:51.908Z,10.73
2017-05-21T22:56:20.842Z,13.22
2017-05-21T22:58:49.775Z,16.12
2017-05-21T23:01:18.746Z,14.62
2017-05-21T23:03:47.682Z,14.87
2017-05-21T23:06:16.638Z,14.43
2017-05-21T23:08:45.622Z,13.35
2017-05-21T23:11:14.555Z,14.60
2017-05-21T23:13:43.509Z,20.73
2017-05-21T23:16:12.505Z,19.20
2017-05-21T23:18:41.448Z,15.23
2017-05-21T23:21:10.378Z,13.83
2017-05-21T23:23:39.330Z,14.57
2017-05-21T23:26:08.289Z,12.83
2017-05-21T23:28:37.225Z,15.48
2017-05-21T23:31:06.263Z,13.37
2017-05-21T23:33:35.198Z,13.25
2017-05-21T23:36:04.152Z,21.15
2017-05-21T23:38:33.116Z,21.93
2017-05-21T23:41:02.069Z,19.55
2017-05-21T23:43:30.996Z,22.30
2017-05-21T23:45:59.981Z,16.20
2017-05-21T23:48:28.937Z,15.48
2017-05-21T23:50:57.877Z,15.37
2017-05-21T23:53:26.843Z,14.23
2017-05-21T23:55:55.782Z,14.82
2017-05-21T23:58:24.737Z,13.60
